Time;durP1;ratioP1;P1;durP2;ratioP2;P2;SDS_P1;SDS_P2;PMS_P1;PMS_P2;Temp;Humidity;BMP_temperature;BMP_pressure;BME280_temperature;BME280_humidity;BME280_pressure;Samples;Min_cycle;Max_cycle;Signal;HPM_P1;HPM_P2
2022/01/09 00:01:29;;;;;;;0.50;0.20;;;3.50;85.90;;;;;;5074175;28;20021;-76
2022/01/09 00:03:55;;;;;;;0.35;0.20;;;3.50;86.00;;;;;;5074869;28;20107;-75
2022/01/09 00:06:21;;;;;;;0.10;0.10;;;3.50;86.00;;;;;;5073954;28;20099;-75
2022/01/09 00:08:46;;;;;;;0.20;0.20;;;3.60;85.40;;;;;;5073546;28;20381;-76
2022/01/09 00:11:13;;;;;;;0.32;0.20;;;3.60;85.10;;;;;;5073409;28;20085;-75
2022/01/09 00:13:39;;;;;;;0.20;0.20;;;3.60;85.40;;;;;;5072546;28;20081;-75
2022/01/09 00:16:05;;;;;;;0.20;0.20;;;3.50;85.60;;;;;;5073324;28;20029;-75
2022/01/09 00:18:30;;;;;;;0.68;0.40;;;3.50;85.10;;;;;;5073358;28;20035;-75
2022/01/09 00:20:56;;;;;;;1.30;0.20;;;3.50;85.80;;;;;;5073315;28;20021;-75
2022/01/09 00:23:22;;;;;;;0.30;0.30;;;3.50;86.00;;;;;;5073317;28;20037;-76
2022/01/09 00:25:47;;;;;;;0.20;0.20;;;3.50;86.30;;;;;;5073253;28;20017;-76
2022/01/09 00:28:13;;;;;;;0.15;0.10;;;3.50;86.30;;;;;;5055271;28;20027;-76
2022/01/09 00:30:38;;;;;;;0.10;0.10;;;3.50;86.20;;;;;;5073241;28;20384;-76
2022/01/09 00:33:06;;;;;;;0.13;0.10;;;3.50;86.20;;;;;;5073083;28;20017;-76
2022/01/09 00:35:32;;;;;;;0.20;0.20;;;3.50;86.50;;;;;;5072923;28;20051;-75
2022/01/09 00:37:58;;;;;;;0.35;0.20;;;3.50;86.40;;;;;;5073074;28;20036;-75
2022/01/09 00:40:23;;;;;;;0.13;0.13;;;3.50;86.70;;;;;;5055069;28;20020;-76
2022/01/09 00:42:49;;;;;;;0.20;0.20;;;3.40;86.90;;;;;;5073092;28;20028;-75
2022/01/09 00:45:15;;;;;;;0.30;0.30;;;3.40;86.80;;;;;;5072818;28;20473;-76
2022/01/09 00:47:42;;;;;;;0.22;0.22;;;3.30;87.00;;;;;;5073046;28;20013;-78
2022/01/09 00:50:09;;;;;;;0.10;0.10;;;3.20;87.50;;;;;;5072945;28;20031;-77
2022/01/09 00:52:34;;;;;;;0.20;0.20;;;3.10;88.40;;;;;;5073104;28;20033;-76
2022/01/09 00:55:00;;;;;;;0.20;0.20;;;3.00;88.30;;;;;;5072831;28;20029;-76
2022/01/09 00:57:26;;;;;;;0.75;0.30;;;3.00;88.40;;;;;;5072912;28;20036;-76
2022/01/09 00:59:51;;;;;;;0.20;0.20;;;3.10;88.70;;;;;;5072891;28;20016;-76
2022/01/09 01:02:17;;;;;;;0.35;0.30;;;3.00;88.50;;;;;;5072823;28;20027;-76
2022/01/09 01:04:43;;;;;;;0.82;0.20;;;3.10;88.30;;;;;;5072883;28;20029;-77
2022/01/09 01:07:08;;;;;;;0.20;0.20;;;3.20;88.00;;;;;;5072643;28;20086;-76
2022/01/09 01:09:34;;;;;;;0.15;0.10;;;3.20;87.50;;;;;;5072930;28;20101;-76
2022/01/09 01:12:01;;;;;;;0.10;0.10;;;3.30;86.90;;;;;;5072908;28;20021;-76
2022/01/09 01:14:27;;;;;;;0.30;0.03;;;3.30;87.20;;;;;;5072714;28;20441;-76
2022/01/09 01:16:54;;;;;;;0.88;0.88;;;3.40;87.00;;;;;;5072664;28;20084;-77
2022/01/09 01:19:21;;;;;;;0.00;0.00;;;3.40;86.30;;;;;;5072649;28;20354;-76
2022/01/09 01:21:47;;;;;;;0.00;0.00;;;3.50;86.30;;;;;;5072713;28;20104;-76
2022/01/09 01:24:13;;;;;;;0.63;0.10;;;3.50;86.70;;;;;;5072667;28;20063;-76
2022/01/09 01:26:38;;;;;;;0.10;0.10;;;3.50;86.00;;;;;;5076198;28;20048;-76
2022/01/09 01:29:04;;;;;;;0.08;0.08;;;3.50;86.20;;;;;;5076602;28;20078;-76
2022/01/09 01:31:29;;;;;;;0.00;0.00;;;3.60;86.10;;;;;;5076640;28;20373;-75
2022/01/09 01:33:55;;;;;;;0.10;0.10;;;3.60;85.90;;;;;;5076375;28;20048;-75
2022/01/09 01:36:21;;;;;;;0.10;0.10;;;3.60;86.00;;;;;;5076370;28;20104;-76
2022/01/09 01:38:46;;;;;;;0.05;0.05;;;3.60;85.80;;;;;;5076511;28;20032;-76
2022/01/09 01:41:12;;;;;;;0.13;0.10;;;3.60;85.60;;;;;;5065693;28;20033;-76
2022/01/09 01:43:38;;;;;;;0.00;0.00;;;3.60;85.70;;;;;;5078509;28;20024;-75
2022/01/09 01:46:04;;;;;;;0.03;0.03;;;3.70;85.60;;;;;;5076240;28;20099;-76
2022/01/09 01:48:30;;;;;;;0.25;0.10;;;3.70;86.30;;;;;;5076060;28;20089;-76
2022/01/09 01:50:56;;;;;;;0.00;0.00;;;3.70;85.90;;;;;;5076154;28;20013;-76
2022/01/09 01:53:23;;;;;;;0.00;0.00;;;3.80;86.50;;;;;;5076150;28;20035;-75
2022/01/09 01:55:53;;;;;;;0.10;0.00;;;3.80;87.00;;;;;;5076075;28;20368;-76
2022/01/09 01:58:21;;;;;;;0.00;0.00;;;3.80;87.00;;;;;;5075965;28;20102;-76
2022/01/09 02:00:47;;;;;;;0.10;0.10;;;3.80;87.60;;;;;;5076013;28;20013;-76
2022/01/09 02:03:13;;;;;;;0.00;0.00;;;3.90;87.30;;;;;;5075905;28;20028;-76
2022/01/09 02:05:44;;;;;;;0.20;0.10;;;3.90;86.90;;;;;;5075847;28;20027;-76
2022/01/09 02:08:10;;;;;;;0.00;0.00;;;3.90;87.80;;;;;;5075887;28;20392;-76
2022/01/09 02:10:40;;;;;;;0.00;0.00;;;3.90;86.70;;;;;;5075803;28;20056;-76
2022/01/09 02:13:06;;;;;;;0.00;0.00;;;3.90;86.70;;;;;;5075675;28;20047;-76
2022/01/09 02:15:45;;;;;;;0.00;0.00;;;3.90;86.30;;;;;;5075549;28;20028;-75
2022/01/09 02:18:17;;;;;;;0.10;0.10;;;4.00;86.20;;;;;;5075702;28;20029;-76
2022/01/09 02:20:43;;;;;;;0.00;0.00;;;3.90;86.60;;;;;;5079199;28;20054;-76
2022/01/09 02:23:11;;;;;;;0.20;0.00;;;3.80;87.20;;;;;;5076381;28;20421;-76
2022/01/09 02:25:38;;;;;;;0.30;0.00;;;3.90;87.20;;;;;;5075657;28;20028;-76
2022/01/09 02:28:04;;;;;;;0.00;0.00;;;3.80;87.00;;;;;;5075403;28;20617;-76
2022/01/09 02:30:33;;;;;;;0.05;0.05;;;3.90;86.80;;;;;;5075450;28;20029;-76
2022/01/09 02:33:00;;;;;;;0.00;0.00;;;4.00;86.20;;;;;;5075580;28;20033;-76
2022/01/09 02:35:26;;;;;;;0.55;0.20;;;4.00;86.20;;;;;;5075381;28;20044;-77
2022/01/09 02:37:52;;;;;;;0.05;0.05;;;4.10;86.10;;;;;;5074242;28;20032;-77
2022/01/09 02:40:18;;;;;;;0.00;0.00;;;4.10;86.00;;;;;;5057251;28;20031;-76
2022/01/09 02:42:43;;;;;;;0.08;0.00;;;4.30;85.60;;;;;;5075496;28;20397;-77
2022/01/09 02:45:09;;;;;;;0.13;0.00;;;4.20;85.00;;;;;;5075314;28;20418;-76
2022/01/09 02:47:36;;;;;;;0.10;0.00;;;4.20;84.70;;;;;;5075210;28;20090;-76
2022/01/09 02:50:13;;;;;;;0.10;0.00;;;4.20;84.80;;;;;;5075032;28;20077;-76
2022/01/09 02:52:53;;;;;;;0.00;0.00;;;4.20;84.80;;;;;;5075395;28;20012;-75
2022/01/09 02:55:20;;;;;;;0.10;0.10;;;4.30;84.20;;;;;;5075203;28;20074;-76
2022/01/09 02:57:48;;;;;;;0.65;0.05;;;4.30;83.50;;;;;;5074924;28;20035;-76
2022/01/09 03:00:22;;;;;;;0.10;0.00;;;4.40;83.00;;;;;;5075061;28;20023;-74
2022/01/09 03:02:48;;;;;;;0.40;0.20;;;4.50;82.50;;;;;;5074942;28;20512;-75
2022/01/09 03:05:14;;;;;;;0.38;0.05;;;4.40;82.80;;;;;;5074939;28;20028;-75
2022/01/09 03:07:41;;;;;;;0.35;0.00;;;4.30;83.10;;;;;;5075118;28;20025;-75
2022/01/09 03:10:08;;;;;;;0.08;0.00;;;4.20;83.70;;;;;;5074696;28;20024;-75
2022/01/09 03:12:34;;;;;;;0.10;0.00;;;4.20;84.50;;;;;;5074598;28;20481;-74
2022/01/09 03:15:00;;;;;;;0.60;0.10;;;4.20;84.60;;;;;;5074696;28;20070;-75
2022/01/09 03:17:25;;;;;;;0.00;0.00;;;4.10;84.90;;;;;;5074500;28;20029;-74
2022/01/09 03:19:51;;;;;;;0.10;0.10;;;4.10;85.20;;;;;;5074371;28;20024;-74
2022/01/09 03:22:16;;;;;;;0.35;0.10;;;4.10;85.10;;;;;;5074581;28;20628;-74
2022/01/09 03:24:42;;;;;;;0.00;0.00;;;4.10;85.70;;;;;;5074603;28;20472;-75
2022/01/09 03:27:11;;;;;;;0.00;0.00;;;4.00;85.80;;;;;;5074417;28;20036;-75
2022/01/09 03:29:38;;;;;;;0.08;0.08;;;4.10;85.90;;;;;;5074881;28;20138;-75
2022/01/09 03:32:06;;;;;;;0.00;0.00;;;4.00;85.90;;;;;;5074792;28;20214;-74
2022/01/09 03:34:32;;;;;;;0.00;0.00;;;4.10;85.70;;;;;;5074076;28;20082;-75
2022/01/09 03:36:58;;;;;;;0.00;0.00;;;4.00;85.80;;;;;;5074081;28;20493;-75
2022/01/09 03:39:23;;;;;;;0.00;0.00;;;4.00;86.20;;;;;;5074050;28;20063;-75
2022/01/09 03:41:49;;;;;;;0.03;0.03;;;3.90;86.70;;;;;;5074127;28;20025;-75
2022/01/09 03:44:15;;;;;;;0.10;0.10;;;3.90;86.20;;;;;;5073855;28;20090;-75
2022/01/09 03:46:41;;;;;;;0.10;0.10;;;3.90;86.40;;;;;;5073891;28;20104;-75
2022/01/09 03:49:06;;;;;;;0.15;0.10;;;3.90;86.20;;;;;;5073782;28;20111;-75
2022/01/09 03:51:36;;;;;;;0.17;0.10;;;3.90;86.60;;;;;;5073808;28;20107;-75
2022/01/09 03:54:05;;;;;;;0.10;0.10;;;3.80;87.10;;;;;;5073732;28;20020;-75
2022/01/09 03:56:31;;;;;;;0.10;0.03;;;3.80;87.00;;;;;;5073752;28;20036;-75
2022/01/09 03:58:57;;;;;;;0.00;0.00;;;3.80;86.20;;;;;;5055765;28;20024;-75
2022/01/09 04:01:22;;;;;;;0.00;0.00;;;3.80;86.10;;;;;;5073656;28;20386;-74
2022/01/09 04:03:48;;;;;;;0.10;0.10;;;3.90;85.50;;;;;;5073681;28;20016;-77
2022/01/09 04:06:14;;;;;;;0.30;0.00;;;3.90;85.40;;;;;;5073539;28;20032;-74
2022/01/09 04:08:39;;;;;;;0.03;0.00;;;3.90;84.60;;;;;;5073659;28;20036;-74
2022/01/09 04:11:06;;;;;;;0.00;0.00;;;3.90;85.30;;;;;;5077284;28;20028;-75
2022/01/09 04:13:32;;;;;;;0.10;0.08;;;3.90;85.30;;;;;;5078702;28;20028;-75
2022/01/09 04:15:58;;;;;;;0.17;0.10;;;3.80;85.20;;;;;;5074037;28;20477;-75
2022/01/09 04:18:24;;;;;;;0.47;0.10;;;3.80;84.80;;;;;;5073507;28;20123;-74
2022/01/09 04:20:52;;;;;;;0.20;0.10;;;3.70;86.20;;;;;;5073391;28;20100;-74
2022/01/09 04:23:18;;;;;;;0.00;0.00;;;3.60;86.00;;;;;;5073331;28;20028;-74
2022/01/09 04:25:45;;;;;;;0.00;0.00;;;3.50;86.30;;;;;;5073386;28;20027;-78
2022/01/09 04:28:12;;;;;;;0.10;0.10;;;3.30;87.50;;;;;;5073213;28;20082;-74
2022/01/09 04:30:38;;;;;;;1.48;0.00;;;3.20;88.10;;;;;;5073312;28;20021;-74
2022/01/09 04:33:04;;;;;;;0.15;0.10;;;3.10;88.20;;;;;;5073221;28;20025;-75
2022/01/09 04:35:30;;;;;;;1.13;0.10;;;2.90;88.90;;;;;;5073008;28;20102;-75
2022/01/09 04:37:56;;;;;;;0.70;0.00;;;2.80;89.70;;;;;;5073063;28;20042;-76
2022/01/09 04:40:21;;;;;;;0.00;0.00;;;2.60;91.00;;;;;;5055201;28;20024;-75
2022/01/09 04:42:54;;;;;;;0.28;0.10;;;2.50;91.40;;;;;;5073122;28;20426;-74
2022/01/09 04:45:21;;;;;;;2.30;0.10;;;2.40;91.40;;;;;;5072971;28;20025;-77
2022/01/09 04:47:50;;;;;;;0.35;0.05;;;2.40;90.70;;;;;;5073060;28;20029;-76
2022/01/09 04:50:26;;;;;;;0.20;0.17;;;2.30;91.50;;;;;;5072934;28;20073;-75
2022/01/09 04:52:59;;;;;;;0.10;0.10;;;2.10;92.20;;;;;;5073064;28;20393;-75
2022/01/09 04:55:25;;;;;;;0.10;0.10;;;2.10;92.70;;;;;;5073112;28;20064;-75
2022/01/09 04:57:50;;;;;;;0.30;0.10;;;1.90;93.00;;;;;;5072891;28;20058;-75
2022/01/09 05:00:16;;;;;;;0.45;0.10;;;1.80;93.40;;;;;;5072370;28;20035;-75
2022/01/09 05:02:42;;;;;;;0.82;0.45;;;1.80;94.00;;;;;;5072949;28;20048;-75
2022/01/09 05:05:09;;;;;;;0.10;0.00;;;1.70;94.30;;;;;;5072907;28;20063;-75
2022/01/09 05:07:35;;;;;;;0.32;0.10;;;1.60;94.80;;;;;;5072810;28;20025;-75
2022/01/09 05:10:02;;;;;;;1.40;0.10;;;1.60;95.00;;;;;;5072827;28;20473;-75
2022/01/09 05:12:27;;;;;;;0.43;0.10;;;1.60;95.20;;;;;;5072865;28;20413;-75
2022/01/09 05:14:53;;;;;;;0.17;0.10;;;1.60;95.20;;;;;;5072919;28;20031;-75
2022/01/09 05:17:19;;;;;;;0.20;0.20;;;1.60;95.10;;;;;;5072638;28;20139;-75
2022/01/09 05:19:46;;;;;;;0.40;0.20;;;1.60;95.20;;;;;;5072817;28;20021;-75
2022/01/09 05:22:12;;;;;;;0.60;0.17;;;1.60;95.30;;;;;;5072686;28;20025;-75
2022/01/09 05:24:37;;;;;;;0.80;0.20;;;1.60;95.30;;;;;;5072756;28;20074;-75
2022/01/09 05:27:03;;;;;;;4.10;2.03;;;1.60;95.40;;;;;;5072627;28;20487;-75
2022/01/09 05:29:29;;;;;;;0.38;0.28;;;1.60;95.30;;;;;;5072656;28;20103;-75
2022/01/09 05:31:54;;;;;;;1.00;0.30;;;1.70;95.30;;;;;;5054705;28;20071;-75
2022/01/09 05:34:20;;;;;;;0.10;0.10;;;1.70;95.90;;;;;;5054462;28;20037;-75
2022/01/09 05:36:46;;;;;;;0.22;0.08;;;1.70;95.00;;;;;;5072545;28;20036;-75
2022/01/09 05:39:12;;;;;;;1.55;0.20;;;1.80;94.80;;;;;;5072574;28;20037;-75
2022/01/09 05:41:39;;;;;;;0.15;0.15;;;1.80;94.60;;;;;;5072515;28;20045;-75
2022/01/09 05:44:04;;;;;;;0.10;0.10;;;1.90;94.70;;;;;;5071780;28;20063;-75
2022/01/09 05:46:30;;;;;;;1.33;0.10;;;1.90;94.70;;;;;;5072441;28;20056;-75
2022/01/09 05:48:55;;;;;;;0.10;0.10;;;2.00;94.60;;;;;;5072483;28;20020;-75
2022/01/09 05:51:21;;;;;;;0.10;0.10;;;2.00;94.50;;;;;;5054473;28;20031;-75
2022/01/09 05:53:46;;;;;;;0.85;0.45;;;2.00;94.30;;;;;;5072392;28;20047;-75
2022/01/09 05:56:12;;;;;;;0.10;0.00;;;2.00;94.10;;;;;;5072234;28;20366;-75
2022/01/09 05:58:39;;;;;;;0.10;0.10;;;2.10;93.80;;;;;;5072280;28;20098;-75
2022/01/09 06:01:06;;;;;;;0.10;0.10;;;2.10;93.80;;;;;;5072286;28;20375;-75
2022/01/09 06:03:31;;;;;;;0.35;0.20;;;2.10;93.80;;;;;;5072364;28;20033;-75
2022/01/09 06:05:57;;;;;;;0.10;0.03;;;2.10;93.00;;;;;;5072311;28;20079;-75
2022/01/09 06:08:23;;;;;;;0.00;0.00;;;2.10;92.60;;;;;;5072240;28;20126;-75
2022/01/09 06:10:49;;;;;;;0.20;0.10;;;2.20;92.00;;;;;;5072286;28;20032;-75
2022/01/09 06:13:14;;;;;;;0.00;0.00;;;2.20;92.00;;;;;;5074731;28;20024;-75
2022/01/09 06:15:40;;;;;;;0.03;0.03;;;2.30;91.70;;;;;;5075761;28;20031;-75
2022/01/09 06:18:06;;;;;;;0.10;0.10;;;2.30;91.20;;;;;;5075536;28;20044;-75
2022/01/09 06:20:31;;;;;;;0.10;0.10;;;2.30;91.20;;;;;;5075602;28;20345;-76
2022/01/09 06:22:57;;;;;;;0.20;0.20;;;2.40;90.90;;;;;;5075581;28;20062;-75
2022/01/09 06:25:22;;;;;;;0.45;0.10;;;2.30;90.40;;;;;;5074402;28;20028;-75
2022/01/09 06:27:48;;;;;;;1.27;0.30;;;2.40;90.80;;;;;;5074870;28;20025;-75
2022/01/09 06:30:14;;;;;;;1.38;0.20;;;2.40;91.00;;;;;;5075310;28;20460;-77
2022/01/09 06:32:39;;;;;;;0.40;0.05;;;2.30;91.00;;;;;;5075643;28;20029;-76
2022/01/09 06:35:06;;;;;;;0.88;0.40;;;2.30;91.30;;;;;;5075656;28;20051;-75
2022/01/09 06:37:32;;;;;;;1.67;0.98;;;2.30;91.60;;;;;;5075263;28;20036;-74
2022/01/09 06:39:57;;;;;;;0.70;0.40;;;2.20;91.80;;;;;;5075281;28;20031;-74
2022/01/09 06:42:23;;;;;;;0.60;0.50;;;2.30;92.20;;;;;;5075398;28;20032;-75
2022/01/09 06:44:49;;;;;;;5.60;2.28;;;2.20;92.40;;;;;;5075161;28;20440;-75
2022/01/09 06:47:14;;;;;;;0.93;0.50;;;2.30;92.60;;;;;;5075008;28;20063;-76
2022/01/09 06:49:40;;;;;;;0.93;0.22;;;2.20;92.40;;;;;;5057152;28;20107;-75
2022/01/09 06:52:06;;;;;;;0.88;0.60;;;2.20;92.80;;;;;;5057192;28;20032;-75
2022/01/09 06:54:31;;;;;;;2.55;1.50;;;2.20;92.90;;;;;;5074892;28;20108;-75
2022/01/09 06:56:57;;;;;;;3.10;2.15;;;2.10;92.90;;;;;;5074917;28;20032;-75
2022/01/09 06:59:23;;;;;;;5.03;2.17;;;2.10;93.00;;;;;;5074936;28;20028;-75
2022/01/09 07:01:48;;;;;;;2.25;1.83;;;2.10;93.00;;;;;;5074959;28;20457;-75
2022/01/09 07:04:14;;;;;;;2.40;1.60;;;2.00;93.10;;;;;;5056828;28;20433;-75
2022/01/09 07:06:39;;;;;;;1.45;1.10;;;2.00;93.30;;;;;;5075143;28;20096;-75
2022/01/09 07:09:05;;;;;;;2.00;1.20;;;1.90;93.60;;;;;;5074637;28;20027;-75
2022/01/09 07:11:31;;;;;;;1.40;1.02;;;1.90;93.70;;;;;;5074750;28;20024;-75
2022/01/09 07:13:57;;;;;;;2.47;1.10;;;1.80;94.00;;;;;;5074640;28;20177;-75
2022/01/09 07:16:22;;;;;;;2.03;1.10;;;1.90;94.10;;;;;;5074722;28;20477;-75
2022/01/09 07:18:48;;;;;;;0.80;0.80;;;1.80;93.90;;;;;;5074657;28;20043;-75
2022/01/09 07:21:14;;;;;;;0.40;0.40;;;1.80;94.00;;;;;;5074776;28;20095;-75
2022/01/09 07:23:39;;;;;;;0.65;0.50;;;1.70;94.10;;;;;;5056594;28;20050;-75
2022/01/09 07:26:05;;;;;;;0.40;0.40;;;1.70;94.60;;;;;;5074833;28;20032;-76
2022/01/09 07:28:31;;;;;;;0.30;0.30;;;1.60;94.90;;;;;;5074752;28;20035;-75
2022/01/09 07:30:58;;;;;;;1.63;0.50;;;1.60;95.10;;;;;;5074470;28;20082;-75
2022/01/09 07:33:23;;;;;;;2.60;1.15;;;1.70;95.20;;;;;;5074338;28;20023;-76
2022/01/09 07:35:49;;;;;;;2.03;0.90;;;1.70;95.00;;;;;;5074044;28;20464;-76
2022/01/09 07:38:14;;;;;;;1.42;0.93;;;1.80;94.70;;;;;;5074129;28;20032;-75
2022/01/09 07:40:40;;;;;;;2.55;1.08;;;1.90;94.60;;;;;;5074197;28;20322;-76
2022/01/09 07:43:06;;;;;;;2.53;0.98;;;1.90;94.20;;;;;;5056352;28;20024;-78
2022/01/09 07:45:32;;;;;;;2.47;1.05;;;1.90;94.00;;;;;;5074111;28;20020;-76
2022/01/09 07:48:02;;;;;;;17.10;7.53;;;1.90;93.70;;;;;;5074174;28;20533;-75
2022/01/09 07:50:28;;;;;;;1.88;0.82;;;2.00;93.20;;;;;;5074067;28;20433;-77
2022/01/09 07:52:55;;;;;;;3.30;1.00;;;2.00;92.70;;;;;;5073912;28;20020;-77
2022/01/09 07:55:22;;;;;;;1.77;0.80;;;2.00;92.10;;;;;;5073846;28;20158;-78
2022/01/09 07:57:48;;;;;;;4.45;1.10;;;2.00;91.70;;;;;;5073789;28;20119;-77
2022/01/09 08:00:15;;;;;;;3.08;0.95;;;2.10;91.20;;;;;;5073732;28;20024;-77
2022/01/09 08:02:41;;;;;;;4.05;1.20;;;2.20;90.20;;;;;;5073770;28;20490;-77
2022/01/09 08:05:07;;;;;;;7.28;1.40;;;2.20;89.50;;;;;;5073514;28;20025;-76
2022/01/09 08:07:33;;;;;;;4.90;1.05;;;2.20;89.30;;;;;;5073740;28;20056;-76
2022/01/09 08:09:58;;;;;;;7.20;1.92;;;2.30;88.70;;;;;;5073642;28;20060;-76
2022/01/09 08:12:24;;;;;;;3.88;1.23;;;2.30;88.10;;;;;;5073579;28;20024;-77
2022/01/09 08:14:50;;;;;;;6.50;1.88;;;2.30;87.90;;;;;;5073709;28;20100;-77
2022/01/09 08:17:16;;;;;;;11.50;1.95;;;2.30;87.70;;;;;;5055463;28;20544;-77
2022/01/09 08:19:41;;;;;;;10.77;2.75;;;2.40;87.60;;;;;;5073414;28;20096;-77
2022/01/09 08:22:08;;;;;;;10.07;2.40;;;2.40;87.90;;;;;;5073199;28;20348;-76
2022/01/09 08:24:35;;;;;;;10.88;2.30;;;2.40;88.60;;;;;;5073191;28;20029;-77
2022/01/09 08:27:01;;;;;;;6.97;1.45;;;2.30;89.10;;;;;;5073208;28;20028;-77
2022/01/09 08:29:26;;;;;;;9.10;1.98;;;2.30;89.60;;;;;;5073166;28;20020;-77
2022/01/09 08:31:52;;;;;;;9.07;1.80;;;2.20;90.40;;;;;;5073170;28;20032;-77
2022/01/09 08:34:18;;;;;;;6.95;1.40;;;2.20;90.80;;;;;;5072397;28;20049;-77
2022/01/09 08:36:44;;;;;;;11.15;1.90;;;2.20;90.80;;;;;;5072723;28;20040;-77
2022/01/09 08:39:12;;;;;;;7.90;2.03;;;2.30;91.10;;;;;;5072953;28;20473;-77
2022/01/09 08:41:39;;;;;;;7.07;2.35;;;2.40;91.20;;;;;;5072999;28;20124;-76
2022/01/09 08:44:06;;;;;;;6.72;2.50;;;2.40;91.30;;;;;;5072940;28;20085;-77
2022/01/09 08:46:33;;;;;;;14.45;2.92;;;2.50;91.00;;;;;;5072699;28;20024;-76
2022/01/09 08:48:59;;;;;;;7.43;1.98;;;2.60;89.00;;;;;;5072974;28;20162;-77
2022/01/09 08:51:26;;;;;;;6.88;1.52;;;2.70;88.40;;;;;;5072953;28;20020;-77
2022/01/09 08:53:51;;;;;;;5.28;1.58;;;2.90;87.80;;;;;;5072950;28;20078;-77
2022/01/09 08:56:18;;;;;;;6.10;2.05;;;3.00;85.70;;;;;;5081895;28;20392;-77
2022/01/09 08:58:44;;;;;;;8.40;2.03;;;3.20;84.30;;;;;;5094999;28;20048;-77
2022/01/09 09:01:10;;;;;;;8.40;1.73;;;3.30;84.00;;;;;;5093305;28;20020;-76
2022/01/09 09:03:40;;;;;;;5.97;1.88;;;3.40;83.80;;;;;;5078943;28;20024;-77
2022/01/09 09:06:06;;;;;;;8.85;1.67;;;3.40;81.30;;;;;;5077247;28;20090;-77
2022/01/09 09:08:32;;;;;;;10.80;2.08;;;3.40;81.80;;;;;;5072608;28;20052;-77
2022/01/09 09:10:57;;;;;;;19.73;3.47;;;3.50;82.20;;;;;;5072729;28;20106;-78
2022/01/09 09:13:23;;;;;;;6.00;1.70;;;3.40;81.20;;;;;;5072568;28;20024;-78
2022/01/09 09:15:48;;;;;;;10.52;3.15;;;3.50;81.60;;;;;;5072675;28;20076;-78
2022/01/09 09:18:14;;;;;;;10.15;2.17;;;3.50;81.70;;;;;;5055284;28;20037;-77
2022/01/09 09:20:40;;;;;;;14.95;2.25;;;3.60;81.00;;;;;;5073440;28;20021;-78
2022/01/09 09:23:05;;;;;;;7.30;1.30;;;3.60;81.10;;;;;;5073812;28;20055;-77
2022/01/09 09:25:31;;;;;;;5.72;1.77;;;3.60;80.90;;;;;;5074237;28;20427;-77
2022/01/09 09:27:56;;;;;;;7.78;1.23;;;3.30;81.00;;;;;;5072874;28;20021;-77
2022/01/09 09:30:22;;;;;;;9.25;1.38;;;3.10;82.50;;;;;;5072640;28;20393;-77
2022/01/09 09:32:48;;;;;;;11.48;2.00;;;3.30;82.20;;;;;;5072562;28;20401;-76
2022/01/09 09:35:13;;;;;;;12.40;2.30;;;3.40;82.00;;;;;;5072297;28;20099;-76
2022/01/09 09:37:39;;;;;;;6.57;1.90;;;3.50;81.20;;;;;;5072390;28;20033;-77
2022/01/09 09:40:05;;;;;;;3.35;1.20;;;3.70;81.20;;;;;;5072366;28;20081;-78
2022/01/09 09:42:31;;;;;;;10.52;2.00;;;4.10;79.90;;;;;;5054375;28;20024;-79
2022/01/09 09:45:00;;;;;;;11.05;2.17;;;4.40;80.00;;;;;;5072352;28;20028;-79
2022/01/09 09:47:26;;;;;;;5.47;1.40;;;4.80;77.80;;;;;;5075361;28;20582;-79
2022/01/09 09:49:52;;;;;;;8.55;1.67;;;4.80;75.70;;;;;;5076080;28;20385;-78
2022/01/09 09:52:19;;;;;;;13.35;1.42;;;5.20;75.90;;;;;;5076125;28;20024;-77
2022/01/09 09:54:49;;;;;;;8.82;1.23;;;4.70;74.40;;;;;;5076118;28;20078;-78
2022/01/09 09:57:15;;;;;;;4.32;1.42;;;4.20;76.30;;;;;;5075872;28;20024;-77
2022/01/09 09:59:41;;;;;;;5.70;1.10;;;4.10;77.40;;;;;;5075968;28;20021;-76
2022/01/09 10:02:17;;;;;;;5.82;1.33;;;3.80;77.60;;;;;;5075843;28;20357;-78
2022/01/09 10:04:57;;;;;;;12.63;4.10;;;3.50;79.60;;;;;;5075884;28;20485;-77
2022/01/09 10:07:23;;;;;;;5.55;1.42;;;3.60;79.50;;;;;;5075756;28;20054;-77
2022/01/09 10:10:00;;;;;;;8.68;1.83;;;3.60;79.70;;;;;;5075770;28;20023;-77
2022/01/09 10:12:29;;;;;;;4.35;1.00;;;3.70;79.80;;;;;;5075835;28;20056;-77
2022/01/09 10:14:59;;;;;;;8.82;2.05;;;3.70;78.90;;;;;;5075809;28;20027;-76
2022/01/09 10:17:26;;;;;;;5.95;1.85;;;3.60;78.90;;;;;;5075708;28;20119;-77
2022/01/09 10:19:56;;;;;;;7.20;1.65;;;3.60;78.30;;;;;;5075793;28;20504;-77
2022/01/09 10:22:46;;;;;;;5.35;1.00;;;3.70;76.90;;;;;;5075683;28;20024;-76
2022/01/09 10:25:21;;;;;;;5.45;1.73;;;4.10;76.70;;;;;;5075682;28;20048;-76
2022/01/09 10:27:48;;;;;;;6.20;1.10;;;4.40;72.40;;;;;;5075601;28;20021;-77
2022/01/09 10:30:14;;;;;;;7.35;1.25;;;4.70;70.20;;;;;;5075518;28;20025;-77
2022/01/09 10:32:41;;;;;;;4.47;1.42;;;5.00;67.70;;;;;;5075491;28;20070;-76
2022/01/09 10:35:13;;;;;;;7.60;2.05;;;5.20;68.20;;;;;;5075227;28;20059;-76
2022/01/09 10:37:41;;;;;;;6.72;1.50;;;5.60;66.70;;;;;;5075412;28;20392;-76
2022/01/09 10:40:10;;;;;;;6.25;1.45;;;5.70;64.40;;;;;;5075366;28;20036;-77
2022/01/09 10:42:37;;;;;;;4.63;0.95;;;5.80;63.60;;;;;;5075225;28;20099;-77
2022/01/09 10:45:22;;;;;;;7.00;1.98;;;5.70;65.90;;;;;;5075184;28;20051;-75
2022/01/09 10:47:48;;;;;;;8.05;1.55;;;5.90;64.60;;;;;;5075189;28;20028;-76
2022/01/09 10:50:35;;;;;;;5.50;1.27;;;5.90;65.10;;;;;;5075201;28;20021;-78
2022/01/09 10:53:31;;;;;;;7.82;1.25;;;6.10;64.20;;;;;;5075048;28;20028;-78
2022/01/09 10:56:18;;;;;;;7.93;2.42;;;5.90;63.20;;;;;;5075140;28;20020;-75
2022/01/09 10:58:50;;;;;;;6.30;1.30;;;5.70;65.10;;;;;;5074117;28;20036;-77
2022/01/09 11:01:27;;;;;;;7.10;1.35;;;5.90;64.80;;;;;;5074944;28;20020;-78
2022/01/09 11:03:54;;;;;;;9.98;1.80;;;6.00;64.00;;;;;;5074987;28;20027;-77
2022/01/09 11:06:21;;;;;;;4.32;1.15;;;5.90;64.30;;;;;;5074695;28;20074;-78
2022/01/09 11:08:48;;;;;;;6.60;1.58;;;6.00;65.20;;;;;;5074930;28;20020;-77
2022/01/09 11:11:58;;;;;;;6.28;1.48;;;6.40;63.50;;;;;;5074717;28;20029;-76
2022/01/09 11:14:08;;;;;;;3.65;0.90;;;6.60;62.60;;;;;;5063702;28;20082;-75
2022/01/09 11:16:34;;;;;;;4.38;0.85;;;7.00;62.10;;;;;;5074594;28;20074;-77
2022/01/09 11:19:07;;;;;;;6.80;1.33;;;7.50;59.90;;;;;;5074639;28;20032;-75
2022/01/09 11:21:35;;;;;;;5.28;1.40;;;7.70;58.10;;;;;;5074490;28;20038;-77
2022/01/09 11:24:19;;;;;;;10.48;1.33;;;8.30;56.70;;;;;;5074455;28;20495;-74
2022/01/09 11:26:51;;;;;;;3.72;1.35;;;8.50;53.60;;;;;;5074435;28;20028;-75
2022/01/09 11:29:31;;;;;;;6.45;1.10;;;8.50;54.30;;;;;;5074372;28;20042;-76
2022/01/09 11:32:15;;;;;;;3.03;0.70;;;7.50;54.90;;;;;;5074167;28;20023;-77
2022/01/09 11:35:18;;;;;;;4.55;0.88;;;6.90;58.50;;;;;;5074088;28;20409;-75
2022/01/09 11:38:23;;;;;;;4.40;0.75;;;5.90;62.60;;;;;;5074065;28;20032;-76
2022/01/09 11:40:49;;;;;;;3.33;0.80;;;5.70;63.80;;;;;;5074280;28;20052;-76
2022/01/09 11:43:17;;;;;;;6.05;0.70;;;5.40;65.10;;;;;;5074030;28;20063;-74
2022/01/09 11:45:46;;;;;;;4.57;1.00;;;5.60;65.20;;;;;;5074035;28;20085;-75
2022/01/09 11:48:14;;;;;;;4.18;0.80;;;5.70;65.00;;;;;;5073857;28;20025;-74
2022/01/09 11:51:04;;;;;;;3.28;1.17;;;5.50;65.60;;;;;;5056199;28;20491;-74
2022/01/09 11:54:01;;;;;;;2.92;1.38;;;5.70;67.20;;;;;;5073908;28;20032;-73
2022/01/09 11:56:41;;;;;;;;;;;5.80;66.50;;;;;;5074229;28;20020;-73
2022/01/09 11:59:28;;;;;;;4.18;0.77;;;5.00;67.00;;;;;;5073802;28;20403;-75
2022/01/09 12:02:03;;;;;;;4.57;1.02;;;5.00;69.50;;;;;;5073873;28;20119;-74
2022/01/09 12:04:32;;;;;;;6.28;1.80;;;5.10;69.50;;;;;;5073711;28;20017;-75
2022/01/09 12:06:58;;;;;;;5.43;1.10;;;5.30;69.80;;;;;;5073649;28;20085;-75
2022/01/09 12:09:35;;;;;;;4.28;1.15;;;5.30;69.20;;;;;;5073636;28;20027;-76
2022/01/09 12:12:16;;;;;;;3.63;0.80;;;4.90;71.70;;;;;;5073578;28;20017;-77
2022/01/09 12:14:42;;;;;;;2.13;1.20;;;4.80;73.00;;;;;;5073553;28;20024;-74
2022/01/09 12:17:31;;;;;;;6.05;1.60;;;4.70;74.30;;;;;;5073274;28;20021;-74
2022/01/09 12:20:12;;;;;;;3.00;1.33;;;4.70;75.30;;;;;;5073284;28;20021;-74
2022/01/09 12:22:45;;;;;;;4.70;1.45;;;4.60;76.70;;;;;;5073646;28;20377;-74
2022/01/09 12:25:26;;;;;;;3.65;1.30;;;4.60;77.30;;;;;;5073357;28;20031;-75
2022/01/09 12:27:56;;;;;;;3.63;0.80;;;4.40;78.60;;;;;;5073365;28;20024;-74
2022/01/09 12:30:36;;;;;;;5.18;0.90;;;3.80;80.10;;;;;;5073393;28;20087;-73
2022/01/09 12:33:07;;;;;;;8.30;1.77;;;3.80;82.20;;;;;;5073270;28;20116;-75
2022/01/09 12:35:35;;;;;;;5.68;1.60;;;4.10;82.40;;;;;;5073092;28;20063;-74
2022/01/09 12:38:02;;;;;;;5.72;1.58;;;4.40;81.70;;;;;;5073025;28;20135;-76
2022/01/09 12:40:29;;;;;;;9.88;2.30;;;4.80;80.80;;;;;;5073171;28;20111;-78
2022/01/09 12:42:56;;;;;;;10.07;1.63;;;5.40;83.40;;;;;;5073052;28;20028;-74
2022/01/09 12:45:26;;;;;;;3.90;1.00;;;5.40;79.70;;;;;;5073064;28;20028;-74
2022/01/09 12:47:55;;;;;;;3.30;0.85;;;5.70;76.90;;;;;;5073071;28;20021;-75
2022/01/09 12:50:32;;;;;;;2.80;1.58;;;5.80;75.50;;;;;;5073111;28;20032;-74
2022/01/09 12:53:20;;;;;;;6.40;2.10;;;5.80;74.60;;;;;;5072932;28;20035;-74
2022/01/09 12:55:54;;;;;;;9.52;3.72;;;5.70;75.70;;;;;;5073084;28;20025;-74
2022/01/09 12:58:33;;;;;;;5.68;2.05;;;5.90;75.30;;;;;;5072893;28;20036;-74
2022/01/09 13:01:02;;;;;;;6.57;1.50;;;5.60;70.40;;;;;;5072761;28;20044;-74
2022/01/09 13:03:34;;;;;;;3.65;1.38;;;4.60;72.90;;;;;;5072870;28;20063;-74